Time;durP1;ratioP1;P1;durP2;ratioP2;P2;SDS_P1;SDS_P2;PMS_P1;PMS_P2;Temp;Humidity;BMP_temperature;BMP_pressure;BME280_temperature;BME280_humidity;BME280_pressure;Samples;Min_cycle;Max_cycle;Signal;HPM_P1;HPM_P2
2023/04/22 00:00:50;;;;;;;357.30;335.23;;;13.20;13.70;;;;;;5015097;28;20251;-72
2023/04/22 00:03:15;;;;;;;366.37;343.27;;;13.20;14.10;;;;;;5014755;28;20168;-72
2023/04/22 00:05:41;;;;;;;308.70;289.20;;;13.20;13.90;;;;;;5015045;28;20172;-71
2023/04/22 00:08:07;;;;;;;281.43;263.07;;;13.20;13.80;;;;;;5014772;28;20210;-72
2023/04/22 00:10:33;;;;;;;211.43;197.43;;;13.10;13.80;;;;;;5014799;28;20553;-72
2023/04/22 00:12:59;;;;;;;347.27;325.20;;;13.10;14.00;;;;;;5014500;28;20407;-72
2023/04/22 00:15:25;;;;;;;242.77;225.93;;;13.10;14.00;;;;;;5014754;28;20966;-72
2023/04/22 00:17:51;;;;;;;153.83;141.80;;;13.00;14.40;;;;;;5014580;28;20200;-72
2023/04/22 00:20:20;;;;;;;288.80;268.90;;;13.10;14.60;;;;;;5014720;28;20476;-71
2023/04/22 00:22:45;;;;;;;225.37;210.73;;;13.10;14.30;;;;;;5014334;28;20192;-71
2023/04/22 00:25:11;;;;;;;320.20;300.37;;;13.00;14.30;;;;;;5014407;28;20611;-72
2023/04/22 00:27:37;;;;;;;240.97;225.37;;;13.00;14.40;;;;;;5014381;28;20273;-72
2023/04/22 00:30:03;;;;;;;267.03;249.87;;;12.90;15.00;;;;;;5014429;28;20552;-71
2023/04/22 00:32:29;;;;;;;171.50;158.70;;;12.90;15.20;;;;;;5014164;28;20271;-72
2023/04/22 00:34:56;;;;;;;319.33;299.73;;;12.90;15.20;;;;;;5014251;28;20473;-71
2023/04/22 00:37:22;;;;;;;237.23;222.10;;;12.90;15.40;;;;;;5014099;28;20210;-72
2023/04/22 00:39:47;;;;;;;241.93;225.70;;;12.80;16.00;;;;;;5014185;28;20986;-72
2023/04/22 00:42:13;;;;;;;323.13;302.80;;;12.80;16.00;;;;;;5013878;28;20498;-72
2023/04/22 00:44:40;;;;;;;206.00;192.27;;;12.70;16.00;;;;;;5013815;28;20270;-73
2023/04/22 00:47:06;;;;;;;337.43;316.17;;;12.70;16.80;;;;;;5013918;28;20447;-73
2023/04/22 00:49:32;;;;;;;256.77;239.37;;;12.70;16.90;;;;;;5014099;28;21004;-73
2023/04/22 00:51:57;;;;;;;327.23;306.63;;;12.50;17.50;;;;;;5013751;28;20424;-72
2023/04/22 00:54:23;;;;;;;244.20;226.67;;;12.40;17.70;;;;;;5013884;28;20501;-72
2023/04/22 00:56:48;;;;;;;288.80;269.33;;;12.30;18.70;;;;;;5013788;28;20265;-71
2023/04/22 00:59:14;;;;;;;269.77;251.63;;;12.30;18.50;;;;;;5014246;28;20188;-72
2023/04/22 01:01:41;;;;;;;201.13;186.23;;;12.40;18.30;;;;;;5014240;28;20257;-73
2023/04/22 01:04:09;;;;;;;297.20;278.57;;;12.30;18.40;;;;;;5014695;28;20180;-71
2023/04/22 01:06:36;;;;;;;277.60;259.37;;;12.30;18.50;;;;;;5013779;28;20445;-71
2023/04/22 01:09:02;;;;;;;242.33;227.83;;;12.30;18.70;;;;;;5013611;28;20458;-71
2023/04/22 01:11:27;;;;;;;228.43;213.23;;;12.20;19.40;;;;;;5013620;28;20430;-71
2023/04/22 01:13:53;;;;;;;319.63;299.77;;;12.20;19.90;;;;;;5013613;28;20176;-72
2023/04/22 01:16:19;;;;;;;225.17;209.17;;;12.10;19.80;;;;;;5013618;28;20179;-72
2023/04/22 01:18:45;;;;;;;299.70;280.10;;;12.00;19.70;;;;;;5013685;28;20494;-72
2023/04/22 01:21:10;;;;;;;244.27;227.87;;;11.90;19.70;;;;;;5013885;28;20426;-71
2023/04/22 01:23:37;;;;;;;214.60;199.97;;;11.90;19.70;;;;;;5013133;28;20240;-71
2023/04/22 01:26:02;;;;;;;280.40;261.80;;;11.70;19.50;;;;;;5013436;28;20188;-73
2023/04/22 01:28:29;;;;;;;347.27;325.80;;;11.60;19.80;;;;;;5013530;28;20524;-71
2023/04/22 01:30:55;;;;;;;251.10;234.50;;;11.50;19.50;;;;;;5013295;28;20629;-71
2023/04/22 01:33:21;;;;;;;241.77;225.90;;;11.50;19.90;;;;;;5013101;28;20407;-71
2023/04/22 01:35:46;;;;;;;282.10;264.13;;;11.50;20.10;;;;;;5013303;28;20415;-70
2023/04/22 01:38:12;;;;;;;176.57;163.50;;;11.40;20.30;;;;;;5012928;28;20812;-71
2023/04/22 01:40:38;;;;;;;162.40;149.77;;;11.30;20.10;;;;;;5013211;28;20192;-71
2023/04/22 01:43:04;;;;;;;222.83;207.90;;;11.40;19.90;;;;;;5012949;28;20426;-71
2023/04/22 01:45:30;;;;;;;153.57;141.30;;;11.40;19.60;;;;;;5013207;28;20493;-71
2023/04/22 01:47:56;;;;;;;162.20;149.17;;;11.40;19.30;;;;;;5012992;28;20599;-71
2023/04/22 01:50:22;;;;;;;180.60;167.73;;;11.30;19.20;;;;;;5013124;28;20419;-71
2023/04/22 01:52:48;;;;;;;173.83;159.83;;;11.30;19.20;;;;;;5012674;28;20229;-71
2023/04/22 01:55:14;;;;;;;172.73;160.13;;;11.40;19.30;;;;;;5012777;28;20904;-71
2023/04/22 01:57:40;;;;;;;167.47;154.07;;;11.30;19.30;;;;;;5012843;28;20202;-71
2023/04/22 02:00:08;;;;;;;160.13;147.93;;;11.30;19.20;;;;;;5012827;28;20411;-72
2023/04/22 02:02:34;;;;;;;334.77;315.20;;;11.30;19.40;;;;;;5012581;28;20658;-71
2023/04/22 02:04:59;;;;;;;200.40;187.17;;;11.20;20.40;;;;;;5012732;28;20414;-71
2023/04/22 02:07:25;;;;;;;202.50;189.27;;;11.20;21.00;;;;;;5012520;28;20202;-73
2023/04/22 02:09:51;;;;;;;236.67;221.30;;;11.20;21.90;;;;;;5012554;28;20700;-71
2023/04/22 02:12:17;;;;;;;234.50;219.70;;;11.20;22.00;;;;;;5012389;28;20249;-71
2023/04/22 02:14:42;;;;;;;244.37;229.20;;;11.20;21.80;;;;;;5012767;28;21003;-71
2023/04/22 02:17:08;;;;;;;160.17;147.83;;;11.10;21.70;;;;;;5011147;28;20201;-71
2023/04/22 02:19:33;;;;;;;151.43;139.57;;;11.00;21.70;;;;;;5012500;28;20176;-71
2023/04/22 02:21:59;;;;;;;197.07;183.73;;;11.00;21.50;;;;;;5012008;28;20177;-72
2023/04/22 02:24:25;;;;;;;160.03;147.30;;;10.90;21.80;;;;;;5012646;28;20180;-71
2023/04/22 02:26:51;;;;;;;137.60;125.93;;;10.90;22.00;;;;;;5012353;28;20170;-71
2023/04/22 02:29:16;;;;;;;142.57;130.93;;;10.90;22.30;;;;;;5012308;28;20552;-72
2023/04/22 02:31:42;;;;;;;145.17;133.77;;;10.80;22.30;;;;;;5011959;28;20185;-72
2023/04/22 02:34:07;;;;;;;122.93;112.20;;;10.70;23.10;;;;;;5012186;28;20251;-71
2023/04/22 02:36:33;;;;;;;196.33;182.57;;;10.60;23.00;;;;;;5012057;28;20176;-71
2023/04/22 02:39:03;;;;;;;165.80;153.80;;;10.70;23.10;;;;;;5012073;28;20633;-71
2023/04/22 02:41:29;;;;;;;213.87;199.53;;;10.70;23.10;;;;;;5012191;28;20410;-71
2023/04/22 02:43:54;;;;;;;159.30;146.90;;;10.60;23.00;;;;;;5012043;28;20410;-72
2023/04/22 02:46:20;;;;;;;166.80;154.03;;;10.60;23.00;;;;;;5012155;28;20251;-71
2023/04/22 02:48:45;;;;;;;172.67;160.17;;;10.60;23.00;;;;;;5011921;28;20696;-71
2023/04/22 02:51:11;;;;;;;204.67;190.70;;;10.60;23.00;;;;;;5011913;28;20192;-71
2023/04/22 02:53:37;;;;;;;154.63;142.93;;;10.50;22.90;;;;;;5011934;28;20242;-72
2023/04/22 02:56:03;;;;;;;177.67;164.77;;;10.50;22.90;;;;;;5012504;28;20172;-71
2023/04/22 02:58:28;;;;;;;131.00;119.97;;;10.40;23.50;;;;;;5012578;28;20219;-71
2023/04/22 03:00:55;;;;;;;166.83;154.13;;;10.30;23.70;;;;;;5012063;28;20423;-71
2023/04/22 03:03:21;;;;;;;253.87;238.97;;;10.20;23.80;;;;;;5011719;28;20168;-72
2023/04/22 03:05:46;;;;;;;158.53;144.23;;;10.10;24.70;;;;;;5011807;28;20426;-73
2023/04/22 03:08:12;;;;;;;206.97;193.00;;;10.00;24.50;;;;;;5011599;28;20226;-71
2023/04/22 03:10:38;;;;;;;249.37;234.17;;;10.00;24.70;;;;;;5011790;28;20207;-71
2023/04/22 03:13:03;;;;;;;173.90;160.87;;;9.90;25.60;;;;;;5011539;28;20172;-72
2023/04/22 03:15:29;;;;;;;198.20;184.13;;;9.80;26.20;;;;;;5011901;28;20178;-71
2023/04/22 03:17:54;;;;;;;238.90;224.47;;;9.80;26.70;;;;;;5011726;28;20789;-71
2023/04/22 03:20:21;;;;;;;220.57;206.67;;;9.70;27.30;;;;;;5011608;28;20191;-71
2023/04/22 03:22:46;;;;;;;174.13;161.53;;;9.60;27.20;;;;;;5011433;28;20183;-71
2023/04/22 03:25:12;;;;;;;161.13;149.07;;;9.60;27.20;;;;;;5011657;28;20413;-72
2023/04/22 03:27:38;;;;;;;200.83;187.23;;;9.60;27.20;;;;;;5011694;28;20199;-71
2023/04/22 03:30:04;;;;;;;194.73;180.67;;;9.60;27.20;;;;;;5011580;28;20525;-71
2023/04/22 03:32:30;;;;;;;278.00;262.13;;;9.60;27.30;;;;;;5011276;28;20186;-70
2023/04/22 03:34:55;;;;;;;204.20;191.10;;;9.50;27.30;;;;;;5011399;28;20497;-69
2023/04/22 03:37:21;;;;;;;195.63;182.13;;;9.50;27.70;;;;;;5011287;28;20220;-70
2023/04/22 03:39:46;;;;;;;236.90;222.50;;;9.40;28.30;;;;;;5011753;28;20634;-70
2023/04/22 03:42:13;;;;;;;215.77;200.83;;;9.40;28.30;;;;;;5009935;28;20188;-71
2023/04/22 03:44:39;;;;;;;173.97;160.90;;;9.50;27.90;;;;;;5011791;28;20207;-70
2023/04/22 03:47:04;;;;;;;226.20;211.83;;;9.30;29.60;;;;;;5011695;28;20493;-71
2023/04/22 03:49:30;;;;;;;273.17;257.03;;;9.30;29.50;;;;;;5011309;28;20677;-70
2023/04/22 03:51:56;;;;;;;217.90;203.70;;;9.30;29.30;;;;;;5011031;28;20498;-70
2023/04/22 03:54:22;;;;;;;230.53;216.00;;;9.30;30.20;;;;;;5011483;28;20908;-70
2023/04/22 03:56:47;;;;;;;264.10;248.50;;;9.30;30.00;;;;;;5011308;28;20188;-70
2023/04/22 03:59:13;;;;;;;332.90;312.73;;;9.20;30.40;;;;;;5011479;28;20195;-70
2023/04/22 04:01:38;;;;;;;208.30;194.03;;;9.10;30.50;;;;;;5010906;28;20238;-71
2023/04/22 04:04:04;;;;;;;292.00;274.47;;;9.10;31.90;;;;;;5011691;28;20533;-69
2023/04/22 04:06:30;;;;;;;205.33;191.70;;;9.10;31.10;;;;;;5011436;28;20213;-70
2023/04/22 04:08:56;;;;;;;265.17;249.10;;;9.00;31.60;;;;;;5011402;28;20271;-70
2023/04/22 04:11:21;;;;;;;219.30;204.30;;;9.00;31.30;;;;;;5011594;28;20418;-70
2023/04/22 04:13:47;;;;;;;199.23;185.17;;;9.00;32.50;;;;;;5011047;28;20180;-70
2023/04/22 04:16:12;;;;;;;219.60;205.63;;;9.00;32.00;;;;;;5011460;28;20176;-71
2023/04/22 04:18:38;;;;;;;204.07;190.10;;;8.90;32.50;;;;;;5012397;28;20207;-70
2023/04/22 04:21:04;;;;;;;200.23;186.03;;;9.00;32.70;;;;;;5014809;28;20185;-70
2023/04/22 04:23:29;;;;;;;281.63;264.20;;;9.00;31.40;;;;;;5013130;28;20195;-70
2023/04/22 04:25:55;;;;;;;193.53;180.30;;;9.00;32.10;;;;;;5013488;28;20184;-71
2023/04/22 04:28:20;;;;;;;252.03;236.77;;;9.00;32.90;;;;;;5014650;28;20589;-70
2023/04/22 04:30:46;;;;;;;270.00;253.17;;;9.00;32.10;;;;;;5014592;28;20183;-70
2023/04/22 04:33:12;;;;;;;289.90;273.13;;;9.00;32.40;;;;;;5014203;28;20266;-70
2023/04/22 04:35:38;;;;;;;280.00;263.23;;;8.90;32.60;;;;;;5014428;28;20517;-70
2023/04/22 04:38:05;;;;;;;236.57;222.07;;;9.00;32.00;;;;;;5014954;28;20223;-70
2023/04/22 04:40:31;;;;;;;284.50;268.63;;;9.00;32.40;;;;;;5014467;28;20176;-70
2023/04/22 04:42:56;;;;;;;290.27;273.57;;;9.10;31.80;;;;;;5014323;28;20511;-70
2023/04/22 04:45:23;;;;;;;187.07;173.57;;;9.10;31.10;;;;;;5014593;28;20414;-70
2023/04/22 04:47:53;;;;;;;251.70;236.97;;;9.10;31.10;;;;;;5014079;28;20196;-70
2023/04/22 04:50:19;;;;;;;171.10;158.37;;;9.20;31.20;;;;;;5014469;28;20502;-70
2023/04/22 04:52:48;;;;;;;223.07;207.87;;;9.20;31.20;;;;;;5014155;28;20905;-69
2023/04/22 04:55:14;;;;;;;291.23;273.77;;;9.20;31.20;;;;;;5014033;28;20429;-70
2023/04/22 04:57:40;;;;;;;213.53;199.50;;;9.20;31.20;;;;;;5014070;28;20439;-70
2023/04/22 05:00:07;;;;;;;300.80;283.73;;;9.30;31.30;;;;;;5014004;28;20583;-70
2023/04/22 05:02:32;;;;;;;255.90;240.07;;;9.30;30.50;;;;;;5013802;28;20633;-70
2023/04/22 05:04:58;;;;;;;286.43;269.77;;;9.40;30.30;;;;;;5014092;28;20472;-71
2023/04/22 05:07:24;;;;;;;274.57;258.03;;;9.50;29.80;;;;;;5014149;28;20196;-70
2023/04/22 05:09:49;;;;;;;248.97;233.23;;;9.50;29.60;;;;;;5015046;28;20216;-70
2023/04/22 05:12:15;;;;;;;241.07;225.93;;;9.50;29.50;;;;;;5013437;28;20228;-69
2023/04/22 05:14:40;;;;;;;200.20;186.67;;;9.60;29.70;;;;;;5015617;28;20195;-70
2023/04/22 05:17:06;;;;;;;267.63;252.17;;;9.60;29.50;;;;;;5013862;28;20653;-70
2023/04/22 05:19:32;;;;;;;329.77;311.40;;;9.70;30.00;;;;;;5013733;28;20633;-70
2023/04/22 05:21:58;;;;;;;233.97;219.63;;;9.80;29.10;;;;;;5013571;28;20423;-70
2023/04/22 05:24:23;;;;;;;299.63;282.13;;;9.90;28.80;;;;;;5014245;28;20198;-71
2023/04/22 05:26:49;;;;;;;302.73;285.40;;;10.00;27.70;;;;;;5013741;28;20176;-70
2023/04/22 05:29:15;;;;;;;273.67;257.30;;;10.10;27.20;;;;;;5013462;28;20707;-74
2023/04/22 05:31:40;;;;;;;267.03;251.87;;;10.20;27.20;;;;;;5013516;28;20172;-72
2023/04/22 05:34:06;;;;;;;269.90;253.87;;;10.40;27.00;;;;;;5014161;28;20631;-71
2023/04/22 05:36:31;;;;;;;261.17;245.87;;;10.50;26.60;;;;;;5013971;28;20182;-69
2023/04/22 05:38:57;;;;;;;264.07;247.80;;;10.60;25.80;;;;;;5013594;28;20277;-70
2023/04/22 05:41:22;;;;;;;219.47;204.50;;;10.70;25.60;;;;;;5013392;28;20218;-70
2023/04/22 05:43:48;;;;;;;205.27;190.77;;;10.90;24.50;;;;;;5013461;28;20476;-70
2023/04/22 05:46:14;;;;;;;244.97;229.70;;;11.10;23.30;;;;;;5013532;28;20196;-69
2023/04/22 05:48:39;;;;;;;191.67;177.17;;;11.30;22.90;;;;;;5013148;28;20226;-70
2023/04/22 05:51:05;;;;;;;220.10;205.00;;;11.50;23.30;;;;;;5013384;28;20699;-70
2023/04/22 05:53:30;;;;;;;239.17;223.57;;;11.70;23.30;;;;;;5012940;28;20546;-69
2023/04/22 05:55:56;;;;;;;225.97;211.03;;;12.00;22.30;;;;;;5013034;28;20241;-70
2023/04/22 05:58:22;;;;;;;203.23;188.30;;;12.30;20.60;;;;;;5012926;28;20215;-70
2023/04/22 06:00:47;;;;;;;301.30;281.93;;;12.70;19.80;;;;;;5012715;28;20184;-70
2023/04/22 06:03:13;;;;;;;286.63;267.50;;;13.20;18.00;;;;;;5012460;28;20223;-70
2023/04/22 06:05:38;;;;;;;378.40;355.77;;;13.50;17.10;;;;;;5012544;28;20180;-70
2023/04/22 06:08:04;;;;;;;303.30;284.43;;;13.90;16.70;;;;;;5012445;28;20214;-70
2023/04/22 06:10:29;;;;;;;288.43;270.23;;;14.30;15.00;;;;;;5011426;28;20187;-70
2023/04/22 06:12:55;;;;;;;312.83;292.13;;;14.60;14.10;;;;;;5012307;28;20176;-70
2023/04/22 06:15:20;;;;;;;255.83;237.80;;;15.00;13.10;;;;;;5012515;28;20215;-70
2023/04/22 06:17:47;;;;;;;288.67;269.77;;;15.60;11.80;;;;;;5012793;28;20251;-70
2023/04/22 06:20:13;;;;;;;199.10;184.50;;;16.00;9.70;;;;;;5012680;28;20184;-70
2023/04/22 06:22:39;;;;;;;272.73;254.13;;;16.50;8.50;;;;;;5012391;28;20419;-70
2023/04/22 06:25:05;;;;;;;298.87;279.43;;;17.10;7.70;;;;;;5012549;28;20941;-70
2023/04/22 06:27:30;;;;;;;181.53;166.30;;;17.70;6.80;;;;;;5012447;28;20291;-69
2023/04/22 06:29:56;;;;;;;364.63;340.83;;;18.20;6.30;;;;;;5012105;28;20462;-73
2023/04/22 06:32:21;;;;;;;384.60;358.90;;;18.40;4.90;;;;;;5012263;28;20199;-71
2023/04/22 06:34:47;;;;;;;295.90;277.93;;;18.50;4.30;;;;;;5012468;28;20176;-71
2023/04/22 06:37:12;;;;;;;489.60;456.93;;;18.60;3.30;;;;;;5012513;28;20216;-71
2023/04/22 06:39:38;;;;;;;441.77;413.90;;;18.60;3.00;;;;;;5012336;28;20216;-71
2023/04/22 06:42:04;;;;;;;481.63;450.07;;;18.50;2.90;;;;;;5011798;28;20198;-71
2023/04/22 06:44:31;;;;;;;388.67;362.27;;;18.40;3.60;;;;;;5012046;28;20198;-71
2023/04/22 06:46:56;;;;;;;355.57;332.27;;;18.10;3.80;;;;;;5012252;28;20281;-71
2023/04/22 06:49:22;;;;;;;281.97;264.30;;;17.80;4.20;;;;;;5012349;28;20509;-71
2023/04/22 06:51:47;;;;;;;406.67;380.40;;;17.80;4.70;;;;;;5012104;28;20233;-71
2023/04/22 06:54:13;;;;;;;401.73;374.90;;;17.70;4.70;;;;;;5012073;28;20212;-71
2023/04/22 06:56:38;;;;;;;402.13;376.70;;;17.40;4.90;;;;;;5011924;28;20258;-71
2023/04/22 06:59:04;;;;;;;362.17;340.27;;;17.30;5.70;;;;;;5011933;28;20238;-70
2023/04/22 07:01:30;;;;;;;450.13;420.87;;;;;;;;;;5012387;28;20188;-70
2023/04/22 07:03:55;;;;;;;378.77;354.33;;;17.00;5.50;;;;;;5011685;28;20263;-70
2023/04/22 07:06:21;;;;;;;336.40;315.70;;;16.30;7.00;;;;;;5012607;28;20506;-71
2023/04/22 07:08:46;;;;;;;302.37;283.10;;;16.50;6.80;;;;;;5013000;28;20287;-71
2023/04/22 07:11:12;;;;;;;349.37;327.50;;;16.70;6.40;;;;;;5013250;28;20203;-71
2023/04/22 07:13:38;;;;;;;325.43;304.57;;;16.80;6.30;;;;;;5012163;28;20180;-70
2023/04/22 07:16:03;;;;;;;338.73;316.50;;;16.90;5.40;;;;;;5012060;28;20183;-71
2023/04/22 07:18:29;;;;;;;279.40;261.13;;;17.10;5.60;;;;;;5011522;28;20196;-70
2023/04/22 07:20:54;;;;;;;392.17;367.27;;;17.00;5.50;;;;;;5011693;28;20175;-70
2023/04/22 07:23:20;;;;;;;466.90;436.63;;;17.20;5.60;;;;;;5010326;28;20209;-70
2023/04/22 07:25:45;;;;;;;283.70;265.23;;;17.30;5.40;;;;;;5011391;28;20286;-71
2023/04/22 07:28:11;;;;;;;401.20;375.73;;;17.50;5.00;;;;;;5011334;28;20298;-70
2023/04/22 07:30:37;;;;;;;404.23;378.40;;;17.70;4.40;;;;;;5011496;28;20648;-70
2023/04/22 07:33:02;;;;;;;397.63;373.50;;;17.80;4.40;;;;;;5011347;28;20198;-70
2023/04/22 07:35:28;;;;;;;219.87;205.17;;;17.80;4.40;;;;;;5011505;28;20218;-70
2023/04/22 07:37:54;;;;;;;385.40;360.50;;;18.00;4.50;;;;;;5029244;28;20215;-70
2023/04/22 07:40:20;;;;;;;422.27;396.33;;;18.40;3.40;;;;;;5030395;28;20426;-70
2023/04/22 07:42:46;;;;;;;436.93;409.73;;;18.30;3.60;;;;;;5031104;28;20388;-70
2023/04/22 07:45:12;;;;;;;394.37;370.30;;;18.00;3.00;;;;;;5031158;28;20638;-71
2023/04/22 07:47:37;;;;;;;364.13;342.23;;;17.70;4.30;;;;;;5030550;28;20446;-71
2023/04/22 07:50:04;;;;;;;339.80;318.73;;;17.60;4.90;;;;;;5030441;28;20302;-71
2023/04/22 07:52:30;;;;;;;430.80;403.87;;;17.40;5.40;;;;;;5030700;28;20430;-71
2023/04/22 07:54:55;;;;;;;361.20;338.90;;;17.40;5.80;;;;;;5034358;28;20436;-70
2023/04/22 07:57:21;;;;;;;469.53;439.83;;;17.50;5.90;;;;;;5035046;28;20652;-70
2023/04/22 07:59:47;;;;;;;402.63;379.07;;;17.50;5.90;;;;;;5034549;28;20215;-71
2023/04/22 08:02:13;;;;;;;414.33;388.23;;;17.80;5.50;;;;;;5034667;28;20619;-71
2023/04/22 08:04:39;;;;;;;392.10;367.43;;;17.90;6.10;;;;;;5034829;28;20509;-71
2023/04/22 08:07:04;;;;;;;441.80;413.07;;;19.00;4.60;;;;;;5034665;28;20199;-70
2023/04/22 08:09:30;;;;;;;250.60;234.03;;;19.80;2.80;;;;;;5034613;28;20688;-68
2023/04/22 08:11:56;;;;;;;455.23;426.03;;;20.70;2.50;;;;;;5033088;28;20198;-74
2023/04/22 08:14:22;;;;;;;375.50;351.30;;;20.80;1.00;;;;;;5034669;28;20354;-69
2023/04/22 08:16:50;;;;;;;469.30;438.87;;;20.80;1.10;;;;;;5034369;28;20517;-71
2023/04/22 08:19:15;;;;;;;419.57;392.67;;;21.80;1.00;;;;;;5034458;28;20464;-71
2023/04/22 08:21:41;;;;;;;439.63;412.10;;;23.30;1.00;;;;;;5034170;28;20410;-70
2023/04/22 08:24:07;;;;;;;402.90;378.23;;;24.90;1.00;;;;;;5034564;28;20183;-70
2023/04/22 08:26:32;;;;;;;507.20;475.83;;;25.50;1.00;;;;;;5034274;28;20572;-70
2023/04/22 08:28:59;;;;;;;473.83;445.70;;;26.60;1.00;;;;;;5032708;28;20299;-70
2023/04/22 08:31:25;;;;;;;455.23;428.00;;;26.70;1.00;;;;;;5013279;28;20196;-70
2023/04/22 08:33:50;;;;;;;470.00;441.23;;;25.90;1.00;;;;;;5013475;28;20784;-70
2023/04/22 08:36:16;;;;;;;526.80;495.47;;;25.90;1.00;;;;;;5013234;28;20183;-70
2023/04/22 08:38:42;;;;;;;419.03;393.43;;;25.90;1.00;;;;;;5014417;28;20215;-71
2023/04/22 08:41:08;;;;;;;456.87;429.63;;;26.80;1.00;;;;;;5014788;28;20184;-71
2023/04/22 08:43:34;;;;;;;406.77;382.53;;;27.70;1.00;;;;;;5014601;28;20192;-70
2023/04/22 08:46:01;;;;;;;473.30;443.70;;;28.80;1.00;;;;;;5014377;28;20430;-70
2023/04/22 08:48:26;;;;;;;461.00;432.73;;;30.20;1.00;;;;;;5014397;28;20948;-70
2023/04/22 08:50:53;;;;;;;487.43;457.33;;;31.50;1.00;;;;;;5014325;28;20418;-71
2023/04/22 08:53:20;;;;;;;477.90;448.03;;;32.20;1.00;;;;;;5014177;28;20180;-71
2023/04/22 08:55:48;;;;;;;501.10;469.67;;;31.40;1.00;;;;;;5014349;28;20423;-71
2023/04/22 08:58:13;;;;;;;597.83;560.27;;;29.20;1.00;;;;;;5014629;28;20447;-70
2023/04/22 09:00:42;;;;;;;523.03;491.57;;;26.80;1.00;;;;;;5015458;28;20447;-73
2023/04/22 09:03:08;;;;;;;491.40;461.03;;;24.90;1.00;;;;;;5015729;28;20180;-72
2023/04/22 09:05:36;;;;;;;477.10;448.67;;;23.10;1.00;;;;;;5015338;28;20419;-74
2023/04/22 09:08:02;;;;;;;483.80;452.57;;;22.20;1.00;;;;;;5015202;28;20800;-74
2023/04/22 09:10:29;;;;;;;363.60;342.40;;;21.70;1.00;;;;;;5015196;28;20411;-72
2023/04/22 09:12:57;;;;;;;416.97;390.83;;;20.80;1.00;;;;;;5020833;28;20443;-72
2023/04/22 09:15:23;;;;;;;457.40;429.63;;;20.50;1.00;;;;;;5030898;28;20422;-72
2023/04/22 09:17:50;;;;;;;415.23;389.73;;;20.10;1.00;;;;;;5035170;28;20438;-72
2023/04/22 09:20:18;;;;;;;498.60;468.27;;;19.80;1.00;;;;;;5036062;28;20410;-73
2023/04/22 09:22:45;;;;;;;421.90;396.20;;;20.00;1.00;;;;;;5035963;28;20414;-72
2023/04/22 09:25:15;;;;;;;391.67;368.40;;;20.10;1.00;;;;;;5035936;28;20525;-72
2023/04/22 09:27:41;;;;;;;400.17;375.73;;;20.30;1.00;;;;;;5037254;28;20426;-72
2023/04/22 09:30:08;;;;;;;425.87;400.17;;;20.50;1.00;;;;;;5035770;28;20951;-72
2023/04/22 09:32:34;;;;;;;373.73;351.73;;;20.50;1.00;;;;;;5035888;28;20167;-72
2023/04/22 09:35:00;;;;;;;391.67;369.03;;;20.90;1.00;;;;;;5035482;28;20894;-72
2023/04/22 09:37:28;;;;;;;430.13;404.73;;;21.20;1.00;;;;;;5034431;28;20337;-72
2023/04/22 09:39:53;;;;;;;472.67;444.40;;;21.10;1.00;;;;;;5034721;28;20881;-72
2023/04/22 09:42:20;;;;;;;415.37;389.87;;;20.90;1.00;;;;;;5034499;28;20496;-72
2023/04/22 09:44:53;;;;;;;430.73;404.13;;;21.20;1.00;;;;;;5034360;28;20180;-72
2023/04/22 09:47:19;;;;;;;447.70;420.67;;;21.00;1.00;;;;;;5034948;28;20430;-72
2023/04/22 09:49:46;;;;;;;498.00;469.00;;;21.10;1.00;;;;;;5034397;28;20465;-71
2023/04/22 09:52:23;;;;;;;481.33;451.77;;;21.10;1.00;;;;;;5033914;28;20398;-71
2023/04/22 09:54:50;;;;;;;495.03;464.57;;;21.20;1.00;;;;;;5034088;28;20406;-72
2023/04/22 09:57:16;;;;;;;474.00;446.47;;;21.50;1.00;;;;;;5033110;28;20469;-71
2023/04/22 09:59:42;;;;;;;535.13;503.50;;;21.80;1.00;;;;;;5033363;28;20445;-71
2023/04/22 10:02:08;;;;;;;504.40;473.70;;;21.80;1.00;;;;;;5033419;28;20668;-72
2023/04/22 10:04:34;;;;;;;491.57;462.53;;;21.80;1.00;;;;;;5033308;28;20181;-71
2023/04/22 10:07:01;;;;;;;399.93;376.03;;;21.60;1.00;;;;;;5032635;28;20524;-74
2023/04/22 10:09:27;;;;;;;418.27;393.70;;;21.60;1.00;;;;;;5026226;28;20302;-72
2023/04/22 10:11:55;;;;;;;545.20;513.37;;;21.60;1.00;;;;;;5014871;28;20425;-72
2023/04/22 10:14:21;;;;;;;437.80;411.70;;;21.70;1.00;;;;;;5014437;28;20789;-71
2023/04/22 10:16:49;;;;;;;534.77;503.87;;;21.80;1.00;;;;;;5016233;28;20426;-70
2023/04/22 10:19:19;;;;;;;455.07;428.20;;;21.90;1.00;;;;;;5032756;28;20935;-71
2023/04/22 10:21:46;;;;;;;514.60;484.37;;;22.10;1.00;;;;;;5033047;28;20483;-71
2023/04/22 10:24:19;;;;;;;452.73;426.43;;;22.20;1.00;;;;;;5033343;28;20414;-71
2023/04/22 10:26:52;;;;;;;447.73;421.47;;;22.00;1.00;;;;;;5023325;28;20426;-71
2023/04/22 10:29:20;;;;;;;477.40;449.83;;;22.10;1.00;;;;;;5032716;28;20458;-70
2023/04/22 10:32:02;;;;;;;419.10;394.40;;;22.20;1.00;;;;;;5032208;28;20426;-70
2023/04/22 10:34:33;;;;;;;534.77;503.33;;;22.30;1.00;;;;;;5032493;28;20463;-71
2023/04/22 10:37:04;;;;;;;501.87;471.37;;;22.40;1.00;;;;;;5032155;28;20454;-71
2023/04/22 10:39:30;;;;;;;441.77;415.17;;;22.50;1.00;;;;;;5056444;22;20563;-69
2023/04/22 10:42:06;;;;;;;448.33;421.47;;;22.50;1.00;;;;;;5032829;28;20414;-69
2023/04/22 10:44:46;;;;;;;471.33;442.33;;;22.90;1.00;;;;;;5032710;28;20266;-70
2023/04/22 10:47:32;;;;;;;463.60;435.30;;;23.00;1.00;;;;;;5014498;28;20402;-70
2023/04/22 10:50:25;;;;;;;410.17;385.40;;;23.00;1.00;;;;;;5032269;28;20477;-70
2023/04/22 10:52:59;;;;;;;486.93;457.37;;;23.30;1.00;;;;;;5030653;28;20922;-72
2023/04/22 10:55:43;;;;;;;444.20;417.17;;;23.60;1.00;;;;;;5032366;28;20544;-71
2023/04/22 10:58:21;;;;;;;431.20;404.77;;;23.70;1.00;;;;;;5014175;28;20477;-71
2023/04/22 11:00:51;;;;;;;449.70;422.67;;;23.90;1.00;;;;;;5032308;28;20414;-70
2023/04/22 11:03:17;;;;;;;522.43;490.27;;;24.10;1.00;;;;;;5010897;28;20522;-69
2023/04/22 11:05:44;;;;;;;480.33;448.40;;;;;;;;;;5012461;28;20984;-69
2023/04/22 11:08:15;;;;;;;401.57;375.70;;;;;;;;;;5025263;28;20434;-70
2023/04/22 11:10:45;;;;;;;415.33;389.27;;;;;;;;;;5032088;28;21008;-71
2023/04/22 11:13:13;;;;;;;462.47;432.87;;;;;;;;;;5032089;28;20402;-71
2023/04/22 11:15:41;;;;;;;415.07;389.53;;;24.60;1.00;;;;;;5014297;28;20513;-71
2023/04/22 11:18:18;;;;;;;497.83;466.43;;;24.50;1.00;;;;;;5013675;28;20449;-71
2023/04/22 11:20:44;;;;;;;728.17;675.07;;;24.50;1.00;;;;;;5031926;28;20958;-72
2023/04/22 11:23:10;;;;;;;499.73;468.50;;;;;;;;;;5031516;28;20819;-71
2023/04/22 11:25:36;;;;;;;502.90;472.07;;;24.70;1.00;;;;;;5032009;28;20406;-71
2023/04/22 11:28:02;;;;;;;419.43;393.47;;;24.80;1.00;;;;;;5033456;28;20995;-71
2023/04/22 11:30:30;;;;;;;438.77;410.83;;;24.80;1.00;;;;;;5036004;28;20167;-71
2023/04/22 11:32:58;;;;;;;478.73;447.77;;;24.60;1.00;;;;;;5035480;28;20425;-71
2023/04/22 11:35:27;;;;;;;510.07;478.50;;;24.40;1.00;;;;;;5021316;28;20948;-71
2023/04/22 11:37:55;;;;;;;564.40;526.07;;;24.30;1.00;;;;;;5024424;28;20503;-70
2023/04/22 11:40:32;;;;;;;508.00;476.30;;;24.50;1.00;;;;;;5036054;28;20405;-71
2023/04/22 11:43:00;;;;;;;471.33;442.43;;;24.70;1.00;;;;;;5017817;28;20598;-71
2023/04/22 11:45:28;;;;;;;460.93;430.80;;;25.00;1.00;;;;;;5035832;28;20488;-71
2023/04/22 11:47:54;;;;;;;512.13;478.37;;;25.20;1.00;;;;;;5035017;28;20441;-71
2023/04/22 11:50:23;;;;;;;464.47;434.93;;;25.20;1.00;;;;;;5035438;28;20410;-69
2023/04/22 11:52:54;;;;;;;530.13;493.00;;;25.40;1.00;;;;;;5035706;28;20409;-69
2023/04/22 11:55:34;;;;;;;513.07;479.07;;;25.30;1.00;;;;;;5017855;28;20430;-69
2023/04/22 11:58:06;;;;;;;515.17;481.53;;;;;;;;;;5035556;28;20536;-69
2023/04/22 12:00:33;;;;;;;599.83;556.03;;;;;;;;;;5035801;28;20480;-69
2023/04/22 12:03:00;;;;;;;498.80;465.03;;;;;;;;;;5018025;28;20464;-69
2023/04/22 12:05:40;;;;;;;485.57;453.23;;;25.30;1.00;;;;;;5035617;28;20421;-70
2023/04/22 12:08:11;;;;;;;601.17;557.23;;;24.80;1.00;;;;;;5035397;28;20540;-68
2023/04/22 12:10:49;;;;;;;541.20;505.40;;;25.30;1.00;;;;;;5035416;28;20434;-69
2023/04/22 12:13:22;;;;;;;498.60;466.57;;;25.30;1.00;;;;;;5035273;28;20839;-69